PASH

Details ICAO PASH (SHH)
Name SHISHMAREF
Region USA (Alaska)
Timezone America/Nome (UTC-9.0)
Plans Departing 3
Arriving 2
Stats Elevation 12 ft / 4 m (AMSL)
Location 66.249567° -166.089346°
Runways 1
Magnetic Variation 9.785° E
Sunrise 2017-12-18 21:45:41 UTC / 2017-12-18 12:45:41 Local
Sunset 2017-12-19 00:19:24 UTC / 2017-12-18 15:19:24 Local
Advertisement - Login to hide

Runways

ID Width Length Bearing (true) Bearing (mag) Surface Threshold Offset Overrun Length
05 69 ft / 21 m 4,983 ft / 1,519 m 63.45° 53.66° Asphalt 0 ft / 0 m 0 ft / 0 m
23 69 ft / 21 m 4,983 ft / 1,519 m 243.48° 233.69° Asphalt 0 ft / 0 m 0 ft / 0 m

Map

Weather


0- 5 10 15 20 25 30 35+ Temperature / ° C

Clouds and Precipitation
Forecast for 2017-12-18 18:00 UTC. Updated an hour ago

Ground ~20,000 ft ~40,000 ft Winds

METAR

PASH 181356Z AUTO 19013KT 10SM OVC025 M08/M10 A2982 RMK AO2 SLP101 T10781100 FZRANO

TAF

Not found

Frequencies

Recorded 121.10 MHz AWOS 3
Unicom 123.00 MHz CTAF
Warning: Do not use this data for real-world aviation or navigation. No guarantee of current accuracy is given.